sensor_id;sensor_type;location;lat;lon;timestamp;temperature;humidity
4856;DHT22;2442;48.676;7.986;2023-09-18T00:06:12;19.20;99.90
4856;DHT22;2442;48.676;7.986;2023-09-18T00:08:38;19.60;99.90
4856;DHT22;2442;48.676;7.986;2023-09-18T00:11:05;19.10;99.90
4856;DHT22;2442;48.676;7.986;2023-09-18T00:13:34;19.00;99.90
4856;DHT22;2442;48.676;7.986;2023-09-18T00:16:00;19.20;99.90
4856;DHT22;2442;48.676;7.986;2023-09-18T00:18:29;19.20;99.90
4856;DHT22;2442;48.676;7.986;2023-09-18T00:20:56;19.30;99.90
4856;DHT22;2442;48.676;7.986;2023-09-18T00:23:22;19.20;99.90
4856;DHT22;2442;48.676;7.986;2023-09-18T00:25:49;18.90;99.90
4856;DHT22;2442;48.676;7.986;2023-09-18T00:28:16;19.00;99.90
4856;DHT22;2442;48.676;7.986;2023-09-18T00:30:46;19.10;99.90
4856;DHT22;2442;48.676;7.986;2023-09-18T00:33:14;19.00;99.90
4856;DHT22;2442;48.676;7.986;2023-09-18T00:35:40;19.20;99.90
4856;DHT22;2442;48.676;7.986;2023-09-18T00:38:11;19.10;99.90
4856;DHT22;2442;48.676;7.986;2023-09-18T00:40:37;19.20;99.90
4856;DHT22;2442;48.676;7.986;2023-09-18T00:43:04;19.20;99.90
4856;DHT22;2442;48.676;7.986;2023-09-18T00:45:31;19.20;99.90
4856;DHT22;2442;48.676;7.986;2023-09-18T00:47:59;19.10;99.90
4856;DHT22;2442;48.676;7.986;2023-09-18T00:50:25;19.20;99.90
4856;DHT22;2442;48.676;7.986;2023-09-18T00:52:52;18.70;99.90
4856;DHT22;2442;48.676;7.986;2023-09-18T00:55:19;18.80;99.90
4856;DHT22;2442;48.676;7.986;2023-09-18T00:57:46;19.00;99.90
4856;DHT22;2442;48.676;7.986;2023-09-18T01:00:13;19.30;99.90
4856;DHT22;2442;48.676;7.986;2023-09-18T01:02:43;19.90;99.90
4856;DHT22;2442;48.676;7.986;2023-09-18T01:05:11;19.80;99.90
4856;DHT22;2442;48.676;7.986;2023-09-18T01:07:39;19.90;99.90
4856;DHT22;2442;48.676;7.986;2023-09-18T01:10:06;20.10;99.90
4856;DHT22;2442;48.676;7.986;2023-09-18T01:12:36;20.00;99.90
4856;DHT22;2442;48.676;7.986;2023-09-18T01:15:06;19.90;99.90
4856;DHT22;2442;48.676;7.986;2023-09-18T01:17:34;19.90;99.90
4856;DHT22;2442;48.676;7.986;2023-09-18T01:20:02;19.80;99.90
4856;DHT22;2442;48.676;7.986;2023-09-18T01:22:31;19.80;99.90
4856;DHT22;2442;48.676;7.986;2023-09-18T01:24:58;19.90;99.90
4856;DHT22;2442;48.676;7.986;2023-09-18T01:27:24;20.00;99.90
4856;DHT22;2442;48.676;7.986;2023-09-18T01:32:19;19.80;99.90
4856;DHT22;2442;48.676;7.986;2023-09-18T01:34:46;19.70;99.90
4856;DHT22;2442;48.676;7.986;2023-09-18T01:37:15;19.70;99.90
4856;DHT22;2442;48.676;7.986;2023-09-18T01:39:43;19.70;99.90
4856;DHT22;2442;48.676;7.986;2023-09-18T01:42:12;19.90;99.90
4856;DHT22;2442;48.676;7.986;2023-09-18T01:44:39;19.80;99.90
4856;DHT22;2442;48.676;7.986;2023-09-18T01:47:06;20.00;99.90
4856;DHT22;2442;48.676;7.986;2023-09-18T01:49:33;20.30;99.90
4856;DHT22;2442;48.676;7.986;2023-09-18T01:52:00;20.30;99.90
4856;DHT22;2442;48.676;7.986;2023-09-18T01:54:27;20.50;99.90
4856;DHT22;2442;48.676;7.986;2023-09-18T01:56:56;20.70;99.90
4856;DHT22;2442;48.676;7.986;2023-09-18T01:59:23;20.70;99.90
4856;DHT22;2442;48.676;7.986;2023-09-18T02:01:51;20.90;99.90
4856;DHT22;2442;48.676;7.986;2023-09-18T02:04:18;20.70;99.90
4856;DHT22;2442;48.676;7.986;2023-09-18T02:06:46;20.80;99.90
4856;DHT22;2442;48.676;7.986;2023-09-18T02:09:13;20.90;99.90
4856;DHT22;2442;48.676;7.986;2023-09-18T02:11:41;20.60;99.90
4856;DHT22;2442;48.676;7.986;2023-09-18T02:14:09;20.60;99.90
4856;DHT22;2442;48.676;7.986;2023-09-18T02:26:24;20.00;99.90
4856;DHT22;2442;48.676;7.986;2023-09-18T02:28:51;19.70;99.90
4856;DHT22;2442;48.676;7.986;2023-09-18T02:31:19;19.60;99.90
4856;DHT22;2442;48.676;7.986;2023-09-18T02:33:46;19.60;99.90
4856;DHT22;2442;48.676;7.986;2023-09-18T02:36:13;19.30;99.90
4856;DHT22;2442;48.676;7.986;2023-09-18T02:39:00;19.00;99.90
4856;DHT22;2442;48.676;7.986;2023-09-18T02:41:47;19.00;99.90
4856;DHT22;2442;48.676;7.986;2023-09-18T02:44:34;18.80;99.90
4856;DHT22;2442;48.676;7.986;2023-09-18T02:47:02;18.80;99.90
4856;DHT22;2442;48.676;7.986;2023-09-18T02:49:49;18.70;99.90
4856;DHT22;2442;48.676;7.986;2023-09-18T02:52:19;18.80;99.90
4856;DHT22;2442;48.676;7.986;2023-09-18T02:54:45;18.70;99.90
4856;DHT22;2442;48.676;7.986;2023-09-18T02:57:12;18.90;99.90
4856;DHT22;2442;48.676;7.986;2023-09-18T02:59:38;18.90;99.90
4856;DHT22;2442;48.676;7.986;2023-09-18T03:02:06;19.20;99.90
4856;DHT22;2442;48.676;7.986;2023-09-18T03:04:33;18.80;99.90
4856;DHT22;2442;48.676;7.986;2023-09-18T03:07:00;18.90;99.90
4856;DHT22;2442;48.676;7.986;2023-09-18T03:09:27;19.10;99.90
4856;DHT22;2442;48.676;7.986;2023-09-18T03:11:53;18.80;99.90
4856;DHT22;2442;48.676;7.986;2023-09-18T03:14:20;19.10;99.90
4856;DHT22;2442;48.676;7.986;2023-09-18T03:16:47;19.30;99.90
4856;DHT22;2442;48.676;7.986;2023-09-18T03:19:15;19.10;99.90
4856;DHT22;2442;48.676;7.986;2023-09-18T03:21:42;18.60;99.90
4856;DHT22;2442;48.676;7.986;2023-09-18T03:24:09;18.80;99.90
4856;DHT22;2442;48.676;7.986;2023-09-18T03:53:34;18.20;99.90
4856;DHT22;2442;48.676;7.986;2023-09-18T03:58:28;18.20;99.90
4856;DHT22;2442;48.676;7.986;2023-09-18T05:07:10;18.20;99.90
4856;DHT22;2442;48.676;7.986;2023-09-18T05:09:36;18.00;99.90
4856;DHT22;2442;48.676;7.986;2023-09-18T05:21:55;18.00;99.90
4856;DHT22;2442;48.676;7.986;2023-09-18T05:29:21;18.40;99.90
4856;DHT22;2442;48.676;7.986;2023-09-18T05:31:47;18.30;99.90
4856;DHT22;2442;48.676;7.986;2023-09-18T05:53:55;18.00;99.90
4856;DHT22;2442;48.676;7.986;2023-09-18T06:23:29;18.10;99.90
4856;DHT22;2442;48.676;7.986;2023-09-18T06:28:24;18.50;99.90
4856;DHT22;2442;48.676;7.986;2023-09-18T06:33:19;18.40;99.90
4856;DHT22;2442;48.676;7.986;2023-09-18T06:38:13;18.60;99.90
4856;DHT22;2442;48.676;7.986;2023-09-18T06:48:05;18.60;99.90
4856;DHT22;2442;48.676;7.986;2023-09-18T10:26:35;20.80;99.90
4856;DHT22;2442;48.676;7.986;2023-09-18T10:29:03;20.80;99.90
4856;DHT22;2442;48.676;7.986;2023-09-18T10:31:34;20.30;99.90
4856;DHT22;2442;48.676;7.986;2023-09-18T10:34:02;20.30;99.90
4856;DHT22;2442;48.676;7.986;2023-09-18T10:36:30;20.50;99.90
4856;DHT22;2442;48.676;7.986;2023-09-18T10:41:25;20.60;99.90
4856;DHT22;2442;48.676;7.986;2023-09-18T10:43:54;20.70;99.90
4856;DHT22;2442;48.676;7.986;2023-09-18T10:46:22;20.60;99.90
4856;DHT22;2442;48.676;7.986;2023-09-18T10:48:50;20.80;99.90
4856;DHT22;2442;48.676;7.986;2023-09-18T10:51:19;20.90;99.90
4856;DHT22;2442;48.676;7.986;2023-09-18T10:53:46;21.00;99.90
4856;DHT22;2442;48.676;7.986;2023-09-18T10:56:14;21.10;99.90
4856;DHT22;2442;48.676;7.986;2023-09-18T10:58:41;21.00;99.90
4856;DHT22;2442;48.676;7.986;2023-09-18T11:01:10;21.10;99.90
4856;DHT22;2442;48.676;7.986;2023-09-18T11:03:38;21.20;99.90
4856;DHT22;2442;48.676;7.986;2023-09-18T11:06:06;21.30;99.90
4856;DHT22;2442;48.676;7.986;2023-09-18T11:08:35;21.50;99.90
4856;DHT22;2442;48.676;7.986;2023-09-18T11:11:02;21.70;99.90
4856;DHT22;2442;48.676;7.986;2023-09-18T11:13:35;21.60;99.90
4856;DHT22;2442;48.676;7.986;2023-09-18T11:16:02;21.70;99.90
4856;DHT22;2442;48.676;7.986;2023-09-18T11:18:34;21.90;99.90
4856;DHT22;2442;48.676;7.986;2023-09-18T11:21:08;21.80;99.90
4856;DHT22;2442;48.676;7.986;2023-09-18T11:23:35;21.80;99.90
4856;DHT22;2442;48.676;7.986;2023-09-18T11:26:07;21.80;99.90
4856;DHT22;2442;48.676;7.986;2023-09-18T11:28:33;21.80;99.90
4856;DHT22;2442;48.676;7.986;2023-09-18T11:31:00;21.90;99.90
4856;DHT22;2442;48.676;7.986;2023-09-18T11:33:31;22.00;99.90
4856;DHT22;2442;48.676;7.986;2023-09-18T11:36:01;22.10;99.90
4856;DHT22;2442;48.676;7.986;2023-09-18T11:38:29;22.10;99.90
4856;DHT22;2442;48.676;7.986;2023-09-18T11:40:55;22.10;99.90
4856;DHT22;2442;48.676;7.986;2023-09-18T11:43:24;22.00;99.90
4856;DHT22;2442;48.676;7.986;2023-09-18T11:45:52;22.20;99.90
4856;DHT22;2442;48.676;7.986;2023-09-18T11:48:21;22.00;99.90
4856;DHT22;2442;48.676;7.986;2023-09-18T11:53:17;22.00;99.90
4856;DHT22;2442;48.676;7.986;2023-09-18T11:55:45;22.00;99.90
4856;DHT22;2442;48.676;7.986;2023-09-18T11:58:12;21.80;99.90
4856;DHT22;2442;48.676;7.986;2023-09-18T12:00:39;21.90;99.90
4856;DHT22;2442;48.676;7.986;2023-09-18T12:03:18;21.90;99.90
4856;DHT22;2442;48.676;7.986;2023-09-18T12:05:56;21.80;99.90
4856;DHT22;2442;48.676;7.986;2023-09-18T12:08:25;22.10;99.90
4856;DHT22;2442;48.676;7.986;2023-09-18T12:10:53;22.10;99.90
4856;DHT22;2442;48.676;7.986;2023-09-18T12:13:19;22.40;99.90
4856;DHT22;2442;48.676;7.986;2023-09-18T12:15:46;22.60;99.90
4856;DHT22;2442;48.676;7.986;2023-09-18T12:18:14;23.00;99.90
4856;DHT22;2442;48.676;7.986;2023-09-18T12:20:47;22.80;99.90
4856;DHT22;2442;48.676;7.986;2023-09-18T12:23:14;22.70;99.90
4856;DHT22;2442;48.676;7.986;2023-09-18T12:25:42;22.90;99.90
4856;DHT22;2442;48.676;7.986;2023-09-18T12:28:11;23.00;99.90
4856;DHT22;2442;48.676;7.986;2023-09-18T12:30:40;22.70;99.90
4856;DHT22;2442;48.676;7.986;2023-09-18T12:33:06;22.90;99.90
4856;DHT22;2442;48.676;7.986;2023-09-18T12:35:33;23.30;99.90
4856;DHT22;2442;48.676;7.986;2023-09-18T12:38:01;23.30;99.90
4856;DHT22;2442;48.676;7.986;2023-09-18T12:40:30;23.30;99.90
4856;DHT22;2442;48.676;7.986;2023-09-18T12:42:59;23.20;99.90
4856;DHT22;2442;48.676;7.986;2023-09-18T12:45:26;23.00;99.90
4856;DHT22;2442;48.676;7.986;2023-09-18T12:47:55;23.00;99.90
4856;DHT22;2442;48.676;7.986;2023-09-18T12:50:22;23.20;99.90
4856;DHT22;2442;48.676;7.986;2023-09-18T12:52:48;23.10;99.90
4856;DHT22;2442;48.676;7.986;2023-09-18T12:55:22;23.00;99.90
4856;DHT22;2442;48.676;7.986;2023-09-18T12:57:50;22.90;99.90
4856;DHT22;2442;48.676;7.986;2023-09-18T13:00:18;22.90;99.90
4856;DHT22;2442;48.676;7.986;2023-09-18T13:02:48;22.80;99.90
4856;DHT22;2442;48.676;7.986;2023-09-18T13:05:19;22.90;99.90
4856;DHT22;2442;48.676;7.986;2023-09-18T13:07:46;23.30;99.90
4856;DHT22;2442;48.676;7.986;2023-09-18T13:10:13;23.60;99.90
4856;DHT22;2442;48.676;7.986;2023-09-18T13:12:40;23.90;99.90
4856;DHT22;2442;48.676;7.986;2023-09-18T13:15:07;24.00;99.90
4856;DHT22;2442;48.676;7.986;2023-09-18T13:17:38;24.10;99.90
4856;DHT22;2442;48.676;7.986;2023-09-18T13:20:12;24.10;99.90
4856;DHT22;2442;48.676;7.986;2023-09-18T13:22:39;23.90;99.90
4856;DHT22;2442;48.676;7.986;2023-09-18T13:25:06;23.70;99.90
4856;DHT22;2442;48.676;7.986;2023-09-18T13:27:33;23.40;99.90
4856;DHT22;2442;48.676;7.986;2023-09-18T13:30:00;23.10;99.90
4856;DHT22;2442;48.676;7.986;2023-09-18T13:32:33;23.00;99.90
4856;DHT22;2442;48.676;7.986;2023-09-18T13:35:02;23.10;99.90
4856;DHT22;2442;48.676;7.986;2023-09-18T13:37:31;23.10;99.90
4856;DHT22;2442;48.676;7.986;2023-09-18T13:39:58;23.10;99.90
4856;DHT22;2442;48.676;7.986;2023-09-18T13:42:26;23.30;99.90
4856;DHT22;2442;48.676;7.986;2023-09-18T13:44:55;23.60;99.90
4856;DHT22;2442;48.676;7.986;2023-09-18T13:47:22;23.70;99.90
4856;DHT22;2442;48.676;7.986;2023-09-18T13:49:49;23.90;99.90
4856;DHT22;2442;48.676;7.986;2023-09-18T13:52:18;24.00;99.90
4856;DHT22;2442;48.676;7.986;2023-09-18T13:54:45;24.10;99.90
4856;DHT22;2442;48.676;7.986;2023-09-18T13:57:16;24.20;99.90
4856;DHT22;2442;48.676;7.986;2023-09-18T13:59:44;24.40;99.90
4856;DHT22;2442;48.676;7.986;2023-09-18T14:02:10;24.50;99.90
4856;DHT22;2442;48.676;7.986;2023-09-18T14:04:37;24.50;99.90
4856;DHT22;2442;48.676;7.986;2023-09-18T14:07:04;24.50;99.90
4856;DHT22;2442;48.676;7.986;2023-09-18T14:09:32;24.50;99.90
4856;DHT22;2442;48.676;7.986;2023-09-18T14:11:59;24.60;99.90
4856;DHT22;2442;48.676;7.986;2023-09-18T14:14:25;24.70;99.90
4856;DHT22;2442;48.676;7.986;2023-09-18T14:16:52;24.50;99.90
4856;DHT22;2442;48.676;7.986;2023-09-18T14:19:19;24.20;99.90
4856;DHT22;2442;48.676;7.986;2023-09-18T14:21:46;24.40;99.90
4856;DHT22;2442;48.676;7.986;2023-09-18T14:24:14;24.60;99.90
4856;DHT22;2442;48.676;7.986;2023-09-18T14:26:44;24.60;99.90
4856;DHT22;2442;48.676;7.986;2023-09-18T14:29:11;24.40;99.90
4856;DHT22;2442;48.676;7.986;2023-09-18T14:31:38;24.30;99.90
4856;DHT22;2442;48.676;7.986;2023-09-18T14:34:05;24.20;99.90
4856;DHT22;2442;48.676;7.986;2023-09-18T14:36:32;24.20;99.90
4856;DHT22;2442;48.676;7.986;2023-09-18T14:38:59;24.30;99.90
4856;DHT22;2442;48.676;7.986;2023-09-18T14:41:27;24.50;99.90
4856;DHT22;2442;48.676;7.986;2023-09-18T14:43:55;24.60;99.90
4856;DHT22;2442;48.676;7.986;2023-09-18T14:46:23;24.70;99.90
4856;DHT22;2442;48.676;7.986;2023-09-18T14:48:50;24.70;99.90
4856;DHT22;2442;48.676;7.986;2023-09-18T14:51:20;24.70;99.90
4856;DHT22;2442;48.676;7.986;2023-09-18T14:53:46;24.70;99.90
4856;DHT22;2442;48.676;7.986;2023-09-18T14:56:13;24.70;99.90
4856;DHT22;2442;48.676;7.986;2023-09-18T14:58:40;24.70;99.90
4856;DHT22;2442;48.676;7.986;2023-09-18T15:03:37;24.50;99.90
4856;DHT22;2442;48.676;7.986;2023-09-18T15:57:43;24.00;99.90
4856;DHT22;2442;48.676;7.986;2023-09-18T16:07:32;23.30;99.90
4856;DHT22;2442;48.676;7.986;2023-09-18T16:27:12;22.60;99.90
4856;DHT22;2442;48.676;7.986;2023-09-18T16:37:00;22.40;99.90
4856;DHT22;2442;48.676;7.986;2023-09-18T16:41:55;22.40;99.90
4856;DHT22;2442;48.676;7.986;2023-09-18T16:56:43;21.40;99.90
4856;DHT22;2442;48.676;7.986;2023-09-18T17:28:43;16.50;99.90
4856;DHT22;2442;48.676;7.986;2023-09-18T17:31:10;16.40;99.90
4856;DHT22;2442;48.676;7.986;2023-09-18T17:38:33;16.80;99.90
4856;DHT22;2442;48.676;7.986;2023-09-18T17:41:00;16.60;99.90
4856;DHT22;2442;48.676;7.986;2023-09-18T17:43:26;16.70;99.90
4856;DHT22;2442;48.676;7.986;2023-09-18T17:45:54;16.90;99.90
4856;DHT22;2442;48.676;7.986;2023-09-18T18:00:37;16.70;99.90
4856;DHT22;2442;48.676;7.986;2023-09-18T19:29:00;16.30;99.90
4856;DHT22;2442;48.676;7.986;2023-09-18T19:31:26;16.30;99.90
4856;DHT22;2442;48.676;7.986;2023-09-18T19:33:53;16.30;99.90
4856;DHT22;2442;48.676;7.986;2023-09-18T19:36:20;16.20;99.90
4856;DHT22;2442;48.676;7.986;2023-09-18T19:58:25;16.30;99.90
4856;DHT22;2442;48.676;7.986;2023-09-18T20:13:08;16.40;99.90
4856;DHT22;2442;48.676;7.986;2023-09-18T20:20:30;16.70;99.90
4856;DHT22;2442;48.676;7.986;2023-09-18T21:02:18;16.30;99.90
4856;DHT22;2442;48.676;7.986;2023-09-18T21:07:11;16.20;99.90
